LSZHLSMM

Guest
Details From LSZH - Zurich
To LSMM - Meiringen
Flight Number -
Tags generated
Created
Modified
Stats Distance 47 nm / 87 km
Max Altitude 4,800 ft / 1,463 m
Waypoints 3
Social Downloads 1
Likes 0
Share VATSIM

Download

Looking for another format? Having issues loading an existing format? Contact us
Advertisement - Login to hide

Notes

Basic altitude profile: - Ascent Rate: 2500ft/min - Ascent Speed: 250kts - Cruise Altitude: 35000ft - Cruise Speed: 420kts - Descent Rate: 1500ft/min - Descent Speed: 250kts Options: - Use NATs: yes - Use PACOTS: yes - Use low airways: no - Use high airways: yes

Route

LSZH PINOB LSMM

ID Type Via Altitude Latitude Longitude Leg Dist Tot Dist Heading (true) Name
O LSZH APT - 0 ft / 0 m 47.46349˚ 8.54996˚ - 0 nm - Zurich
PINOB FIX - 4,800 ft / 1,463 m 47.24944˚ 8.45083˚ 13 nm 13 nm 197° / 197° -
O LSMM APT - 0 ft / 0 m 46.74233˚ 8.10875˚ 33 nm 46 nm 205° / 205° Meiringen

Altitude Profile

Advertisement - Login to hide

LSZH

Details ICAO LSZH (ZRH)
Name Zurich
Region Switzerland
Timezone Europe/Zurich (UTC+2.0)
Stats Elevation 1,416 ft / 432 m (AMSL)
Location 47.463489° 8.549964°
Runways 3
Magnetic Variation 2.400° E

METAR

LSZH 242320Z VRB01KT 9999 FEW070 13/11 Q1019 NOSIG

Decode

TAF

TAF LSZH 242025Z 2421/2603 VRB03KT CAVOK TX26/2515Z TN10/2504Z PROB30 2502/2505 8000 MIFG TEMPO 2506/2519 9999 FEW050

Decode

Departure Runways

ID Width Length Bearing (true) Bearing (mag) Surface Threshold Offset Overrun Length
10 197 ft / 60 m 8,180 ft / 2,493 m 95.98° 93.58° Concrete 0 ft / 0 m 197 ft / 60 m
14 197 ft / 60 m 10,816 ft / 3,297 m 137.30° 134.90° Concrete 492 ft / 150 m 0 ft / 0 m
16 197 ft / 60 m 12,137 ft / 3,699 m 155.00° 152.60° Concrete 0 ft / 0 m 197 ft / 60 m
28 197 ft / 60 m 8,180 ft / 2,493 m 276.01° 273.61° Concrete 0 ft / 0 m 197 ft / 60 m
32 197 ft / 60 m 10,816 ft / 3,297 m 317.32° 314.92° Concrete 0 ft / 0 m 197 ft / 60 m
34 197 ft / 60 m 12,137 ft / 3,699 m 335.01° 332.61° Concrete 1,542 ft / 470 m 0 ft / 0 m

LSMM

Details ICAO LSMM
Name Meiringen
Region Switzerland
Timezone Europe/Zurich (UTC+2.0)
Stats Elevation 1,879 ft / 573 m (AMSL)
Location 46.742327° 8.108747°
Runways 1
Magnetic Variation 2.288° E

METAR

LSMM 242250Z AUTO 10003KT 070V140 9999NDV BKN068 13/12 Q1020 RMK

Decode

TAF

Not found

Destination Runways

ID Width Length Bearing (true) Bearing (mag) Surface Threshold Offset Overrun Length
10 131 ft / 40 m 6,884 ft / 2,098 m 96.60° 94.31° Concrete 150 ft / 46 m 623 ft / 190 m
28 131 ft / 40 m 6,884 ft / 2,098 m 276.62° 274.33° Concrete 150 ft / 46 m 623 ft / 190 m